Time;durP1;ratioP1;P1;durP2;ratioP2;P2;SDS_P1;SDS_P2;PMS_P1;PMS_P2;Temp;Humidity;BMP_temperature;BMP_pressure;BME280_temperature;BME280_humidity;BME280_pressure;Samples;Min_cycle;Max_cycle;Signal;HPM_P1;HPM_P2
2022/05/27 00:01:07;;;;;;;7.38;3.35;;;;;;;;;;4971977;28;20093;-77
2022/05/27 00:03:33;;;;;;;7.50;3.20;;;;;;;;;;4989737;28;20078;-79
2022/05/27 00:05:59;;;;;;;7.40;2.90;;;;;;;;;;4990166;28;20398;-79
2022/05/27 00:08:25;;;;;;;5.80;2.85;;;;;;;;;;4989847;28;20058;-79
2022/05/27 00:10:52;;;;;;;7.28;2.92;;;;;;;;;;4985888;28;20053;-78
2022/05/27 00:13:18;;;;;;;5.75;2.58;;;;;;;;;;4976377;28;20054;-79
2022/05/27 00:15:44;;;;;;;9.50;3.00;;;;;;;;;;4970304;28;20058;-79
2022/05/27 00:18:10;;;;;;;8.43;2.90;;;;;;;;;;4969913;28;20042;-78
2022/05/27 00:20:37;;;;;;;8.15;3.08;;;;;;;;;;4970155;28;20055;-78
2022/05/27 00:23:03;;;;;;;8.02;2.75;;;;;;;;;;4979012;28;20038;-80
2022/05/27 00:25:30;;;;;;;8.65;3.58;;;;;;;;;;4989425;28;20046;-79
2022/05/27 00:27:57;;;;;;;10.23;3.90;;;;;;;;;;4989339;28;20073;-78
2022/05/27 00:30:23;;;;;;;10.43;3.35;;;;;;;;;;5005243;28;20054;-78
2022/05/27 00:32:50;;;;;;;8.70;3.60;;;;;;;;;;4988003;28;20584;-79
2022/05/27 00:35:16;;;;;;;9.52;3.15;;;;;;;;;;4976206;28;20326;-79
2022/05/27 00:37:42;;;;;;;10.45;3.70;;;;;;;;;;4970300;28;20049;-78
2022/05/27 00:40:09;;;;;;;7.97;3.22;;;;;;;;;;4969987;28;20078;-78
2022/05/27 00:42:39;;;;;;;12.10;4.00;;;;;;;;;;4970294;28;20046;-79
2022/05/27 00:45:05;;;;;;;11.48;3.38;;;;;;;;;;4970998;28;20533;-80
2022/05/27 00:47:33;;;;;;;10.68;3.60;;;;;;;;;;4970076;28;20445;-78
2022/05/27 00:50:00;;;;;;;12.50;4.38;;;;;;;;;;4969523;28;20311;-78
2022/05/27 00:52:29;;;;;;;10.32;4.13;;;;;;;;;;4969708;28;20042;-79
2022/05/27 00:54:55;;;;;;;10.63;4.05;;;;;;;;;;4981083;28;20046;-79
2022/05/27 00:57:44;;;;;;;10.55;3.95;;;;;;;;;;4974185;28;20039;-79
2022/05/27 01:00:16;;;;;;;10.57;3.90;;;;;;;;;;4968629;28;20158;-78
2022/05/27 01:02:42;;;;;;;12.02;4.30;;;;;;;;;;4985773;28;20082;-80
2022/05/27 01:05:10;;;;;;;14.73;4.95;;;;;;;;;;4961641;28;20498;-77
2022/05/27 01:07:37;;;;;;;13.65;4.20;;;;;;;;;;4988838;28;20092;-80
2022/05/27 01:10:04;;;;;;;16.77;4.25;;;;;;;;;;4988350;28;20054;-80
2022/05/27 01:12:40;;;;;;;13.65;4.30;;;;;;;;;;4975918;28;20101;-77
2022/05/27 01:15:24;;;;;;;10.90;3.78;;;;;;;;;;4972723;28;20101;-77
2022/05/27 01:17:54;;;;;;;13.52;3.95;;;;;;;;;;4988851;28;20125;-77
2022/05/27 01:20:22;;;;;;;11.43;3.08;;;;;;;;;;4988901;28;20050;-77
2022/05/27 01:23:07;;;;;;;10.93;2.63;;;;;;;;;;4970554;28;20406;-77
2022/05/27 01:25:49;;;;;;;12.85;2.65;;;;;;;;;;4971905;28;20035;-77
2022/05/27 01:28:18;;;;;;;16.63;2.97;;;;;;;;;;4980634;28;20503;-83
2022/05/27 01:31:03;;;;;;;16.15;2.72;;;;;;;;;;4970159;28;20046;-81
2022/05/27 01:33:48;;;;;;;10.85;2.55;;;;;;;;;;4971206;28;20505;-81
2022/05/27 01:36:27;;;;;;;10.67;2.60;;;;;;;;;;4971199;28;20030;-82
2022/05/27 01:38:57;;;;;;;7.32;2.20;;;;;;;;;;4971324;28;20305;-83
2022/05/27 01:41:35;;;;;;;10.98;2.33;;;;;;;;;;4987426;28;20543;-81
2022/05/27 01:44:11;;;;;;;16.30;3.00;;;;;;;;;;4971662;28;20038;-86
2022/05/27 01:46:47;;;;;;;11.20;2.47;;;;;;;;;;4990415;28;20093;-83
2022/05/27 01:49:20;;;;;;;13.90;2.40;;;;;;;;;;4990082;28;20053;-85
2022/05/27 01:51:54;;;;;;;10.32;2.58;;;;;;;;;;5003925;28;20070;-84
2022/05/27 01:54:23;;;;;;;20.70;2.88;;;;;;;;;;4989272;28;20070;-85
2022/05/27 01:56:49;;;;;;;9.50;2.63;;;;;;;;;;4979523;28;20047;-84
2022/05/27 01:59:21;;;;;;;12.40;2.90;;;;;;;;;;4989309;28;20039;-85
2022/05/27 02:01:55;;;;;;;13.95;2.95;;;;;;;;;;4970905;28;20461;-82
2022/05/27 02:04:36;;;;;;;14.73;2.78;;;;;;;;;;4977574;28;20051;-84
2022/05/27 02:07:05;;;;;;;17.10;3.30;;;;;;;;;;4999435;28;20066;-85
2022/05/27 02:09:37;;;;;;;15.75;2.90;;;;;;;;;;4998945;28;20498;-84
2022/05/27 02:12:06;;;;;;;16.55;3.33;;;;;;;;;;5003001;28;20525;-84
2022/05/27 02:14:39;;;;;;;12.70;3.05;;;;;;;;;;4970142;28;20066;-82
2022/05/27 02:17:08;;;;;;;15.52;3.00;;;;;;;;;;4969861;28;20505;-83
2022/05/27 02:19:36;;;;;;;16.42;3.15;;;;;;;;;;4954709;28;20085;-83
2022/05/27 02:22:13;;;;;;;18.38;2.80;;;;;;;;;;4986741;28;20043;-84
2022/05/27 02:24:41;;;;;;;11.77;2.63;;;;;;;;;;4974204;28;20450;-83
2022/05/27 02:27:10;;;;;;;16.55;3.80;;;;;;;;;;4993672;28;20490;-86
2022/05/27 02:29:37;;;;;;;11.55;2.75;;;;;;;;;;4989914;28;20417;-86
2022/05/27 02:32:15;;;;;;;15.98;2.80;;;;;;;;;;4976796;28;20050;-85
2022/05/27 02:35:07;;;;;;;12.27;2.90;;;;;;;;;;4973098;28;20039;-87
2022/05/27 02:37:45;;;;;;;16.13;3.13;;;;;;;;;;4986649;28;20146;-85
2022/05/27 02:40:17;;;;;;;18.60;3.53;;;;;;;;;;4980265;28;20062;-78
2022/05/27 02:42:43;;;;;;;17.45;3.05;;;;;;;;;;4973850;28;20097;-83
2022/05/27 02:45:12;;;;;;;13.57;3.15;;;;;;;;;;4989419;28;20058;-78
2022/05/27 02:47:46;;;;;;;13.85;3.28;;;;;;;;;;5005021;28;20449;-78
2022/05/27 02:50:12;;;;;;;15.98;3.33;;;;;;;;;;4996183;28;20046;-87
2022/05/27 02:52:57;;;;;;;15.75;2.80;;;;;;;;;;4991093;28;20039;-86
2022/05/27 02:55:29;;;;;;;13.60;2.80;;;;;;;;;;4986811;28;20613;-86
2022/05/27 02:57:58;;;;;;;10.82;2.80;;;;;;;;;;4976328;28;20130;-86
2022/05/27 03:00:29;;;;;;;18.50;2.70;;;;;;;;;;4989900;28;20042;-85
2022/05/27 03:02:59;;;;;;;11.45;2.92;;;;;;;;;;4974655;28;20391;-84
2022/05/27 03:05:51;;;;;;;13.40;2.63;;;;;;;;;;4991860;28;20051;-86
2022/05/27 03:08:27;;;;;;;12.65;2.80;;;;;;;;;;4974212;28;20059;-87
2022/05/27 03:10:57;;;;;;;17.02;2.85;;;;;;;;;;4994691;28;20050;-86
2022/05/27 03:13:29;;;;;;;11.65;2.72;;;;;;;;;;4975234;28;20061;-83
2022/05/27 03:16:07;;;;;;;10.48;2.83;;;;;;;;;;4989719;28;20054;-85
2022/05/27 03:18:49;;;;;;;11.52;2.60;;;;;;;;;;4974461;28;20170;-85
2022/05/27 03:21:18;;;;;;;14.98;2.65;;;;;;;;;;4991714;28;20042;-84
2022/05/27 03:24:04;;;;;;;17.23;3.50;;;;;;;;;;4961195;28;20386;-85
2022/05/27 03:26:51;;;;;;;17.83;2.90;;;;;;;;;;4966984;28;20457;-85
2022/05/27 03:29:17;;;;;;;;;;;;;;;;;;4957858;28;20502;-83
2022/05/27 03:31:49;;;;;;;14.55;2.97;;;;;;;;;;4995438;28;20029;-83
2022/05/27 03:34:33;;;;;;;16.35;2.97;;;;;;;;;;4983933;28;20038;-83
2022/05/27 03:37:22;;;;;;;12.32;2.60;;;;;;;;;;4990749;28;20090;-86
2022/05/27 03:39:58;;;;;;;17.13;2.70;;;;;;;;;;4975146;28;20106;-86
2022/05/27 03:42:24;;;;;;;10.32;2.50;;;;;;;;;;5009249;28;20081;-85
2022/05/27 03:44:51;;;;;;;15.98;3.05;;;;;;;;;;4993162;28;20081;-85
2022/05/27 03:47:17;;;;;;;12.98;3.03;;;;;;;;;;4979537;28;20494;-85
2022/05/27 03:49:43;;;;;;;14.13;3.03;;;;;;;;;;4983066;28;20043;-84
2022/05/27 03:52:14;;;;;;;14.23;2.78;;;;;;;;;;4988494;28;20096;-77
2022/05/27 03:54:40;;;;;;;16.85;2.83;;;;;;;;;;4992379;28;20098;-85
2022/05/27 03:57:06;;;;;;;12.18;2.83;;;;;;;;;;4979707;28;20035;-83
2022/05/27 03:59:33;;;;;;;15.43;2.60;;;;;;;;;;5005481;28;20062;-85
2022/05/27 04:01:59;;;;;;;12.90;2.72;;;;;;;;;;5004299;28;20113;-84
2022/05/27 04:04:26;;;;;;;10.35;2.42;;;;;;;;;;4970699;28;20047;-82
2022/05/27 04:06:53;;;;;;;11.63;2.45;;;;;;;;;;4987831;28;20050;-84
2022/05/27 04:09:19;;;;;;;10.85;2.80;;;;;;;;;;4975380;28;20069;-85
2022/05/27 04:11:46;;;;;;;11.80;2.38;;;;;;;;;;4986789;28;20050;-85
2022/05/27 04:14:12;;;;;;;12.95;2.65;;;;;;;;;;4988907;28;20058;-86
2022/05/27 04:16:39;;;;;;;11.23;2.30;;;;;;;;;;4975068;28;20038;-84
2022/05/27 04:19:05;;;;;;;13.57;2.70;;;;;;;;;;4988500;28;20046;-85
2022/05/27 04:21:31;;;;;;;13.48;3.10;;;;;;;;;;4975662;28;20098;-85
2022/05/27 04:23:58;;;;;;;12.45;2.13;;;;;;;;;;4982504;28;20053;-85
2022/05/27 04:26:24;;;;;;;15.88;2.50;;;;;;;;;;4989075;28;20046;-85
2022/05/27 04:28:50;;;;;;;7.38;2.30;;;;;;;;;;4988242;28;20482;-84
2022/05/27 04:31:17;;;;;;;12.98;2.25;;;;;;;;;;4989514;28;20066;-86
2022/05/27 04:33:43;;;;;;;10.30;2.40;;;;;;;;;;4971969;28;20158;-85
2022/05/27 04:36:11;;;;;;;12.57;2.17;;;;;;;;;;4973321;28;20043;-86
2022/05/27 04:38:37;;;;;;;11.23;2.75;;;;;;;;;;5004738;28;20121;-84
2022/05/27 04:41:04;;;;;;;10.02;2.22;;;;;;;;;;4988324;28;20054;-82
2022/05/27 04:43:30;;;;;;;14.07;2.20;;;;;;;;;;4972055;28;20564;-85
2022/05/27 04:45:56;;;;;;;14.50;2.22;;;;;;;;;;4993509;28;20074;-85
2022/05/27 04:48:22;;;;;;;12.38;2.05;;;;;;;;;;4979140;28;20078;-85
2022/05/27 04:50:49;;;;;;;8.05;2.22;;;;;;;;;;4988003;28;20053;-85
2022/05/27 04:53:15;;;;;;;8.63;2.17;;;;;;;;;;4987653;28;20375;-85
2022/05/27 04:55:42;;;;;;;9.32;2.10;;;;;;;;;;4971534;28;20035;-84
2022/05/27 04:58:10;;;;;;;8.45;2.15;;;;;;;;;;4988626;28;20458;-84
2022/05/27 05:00:41;;;;;;;13.18;2.20;;;;;;;;;;5004291;28;20085;-85
2022/05/27 05:03:08;;;;;;;9.27;1.90;;;;;;;;;;5003608;28;20050;-84
2022/05/27 05:05:34;;;;;;;9.30;2.30;;;;;;;;;;4987518;28;20053;-83
2022/05/27 05:08:03;;;;;;;11.35;2.08;;;;;;;;;;4974020;28;20082;-84
2022/05/27 05:10:29;;;;;;;8.02;2.00;;;;;;;;;;4987199;28;20058;-83
2022/05/27 05:12:56;;;;;;;12.20;2.63;;;;;;;;;;4986109;28;21343;-77
2022/05/27 05:15:23;;;;;;;10.27;1.80;;;;;;;;;;4986190;28;20054;-84
2022/05/27 05:17:49;;;;;;;7.10;1.80;;;;;;;;;;4970893;28;20039;-77
2022/05/27 05:20:17;;;;;;;10.50;2.10;;;;;;;;;;4969600;28;20403;-78
2022/05/27 05:22:44;;;;;;;8.85;2.28;;;;;;;;;;4969818;28;20077;-77
2022/05/27 05:25:10;;;;;;;11.80;2.30;;;;;;;;;;4969198;28;20491;-77
2022/05/27 05:27:38;;;;;;;11.77;2.17;;;;;;;;;;4986518;28;20051;-77
2022/05/27 05:30:05;;;;;;;9.82;1.83;;;;;;;;;;4988567;28;20050;-77
2022/05/27 05:32:32;;;;;;;10.55;2.15;;;;;;;;;;4985878;28;20042;-77
2022/05/27 05:34:59;;;;;;;12.32;2.20;;;;;;;;;;4985491;28;20043;-76
2022/05/27 05:37:26;;;;;;;8.82;2.55;;;;;;;;;;4984920;28;20088;-77
2022/05/27 05:39:52;;;;;;;13.52;2.95;;;;;;;;;;4986476;28;20043;-77
2022/05/27 05:42:18;;;;;;;10.10;1.83;;;;;;;;;;4984193;28;20081;-77
2022/05/27 05:44:45;;;;;;;10.43;2.05;;;;;;;;;;4969108;28;20038;-77
2022/05/27 05:47:11;;;;;;;7.60;1.90;;;;;;;;;;5001053;28;20078;-77
2022/05/27 05:49:37;;;;;;;13.27;2.20;;;;;;;;;;4976416;28;20129;-78
2022/05/27 05:52:04;;;;;;;11.18;1.83;;;;;;;;;;4971896;28;20042;-78
2022/05/27 05:54:30;;;;;;;8.38;1.98;;;;;;;;;;4982737;28;20047;-77
2022/05/27 05:57:00;;;;;;;10.07;2.10;;;;;;;;;;4968893;28;20051;-78
2022/05/27 05:59:28;;;;;;;10.77;2.05;;;;;;;;;;5006169;28;20541;-78
2022/05/27 06:01:54;;;;;;;11.90;2.65;;;;;;;;;;4976721;28;20134;-78
2022/05/27 06:04:20;;;;;;;11.43;1.95;;;;;;;;;;4973134;28;20047;-82
2022/05/27 06:06:47;;;;;;;7.85;2.10;;;;;;;;;;4973766;28;20109;-80
2022/05/27 06:09:13;;;;;;;10.50;2.38;;;;;;;;;;4989119;28;20085;-78
2022/05/27 06:11:40;;;;;;;10.98;2.47;;;;;;;;;;4991320;28;20489;-78
2022/05/27 06:14:06;;;;;;;8.00;2.10;;;;;;;;;;4988873;28;20063;-79
2022/05/27 06:16:33;;;;;;;10.93;2.10;;;;;;;;;;5006455;28;20035;-79
2022/05/27 06:18:59;;;;;;;10.00;1.90;;;;;;;;;;4975620;28;20046;-79
2022/05/27 06:21:26;;;;;;;7.97;2.13;;;;;;;;;;4975310;28;20046;-77
2022/05/27 06:23:52;;;;;;;9.55;2.20;;;;;;;;;;4976603;28;20034;-78
2022/05/27 06:26:18;;;;;;;7.50;1.90;;;;;;;;;;4986882;28;20058;-76
2022/05/27 06:34:26;;;;;;;12.45;2.30;;;;;;;;;;5004259;28;20050;-80
2022/05/27 06:37:01;;;;;;;8.13;2.35;;;;;;;;;;4964519;28;20093;-80
2022/05/27 06:39:28;;;;;;;10.27;2.75;;;;;;;;;;4991451;28;20501;-77
2022/05/27 06:41:54;;;;;;;8.77;2.10;;;;;;;;;;5005986;28;20502;-77
2022/05/27 06:44:21;;;;;;;6.97;1.92;;;;;;;;;;5001216;28;20129;-77
2022/05/27 06:46:51;;;;;;;10.90;2.08;;;;;;;;;;4989382;28;20086;-76
2022/05/27 06:49:18;;;;;;;8.77;2.20;;;;;;;;;;4988973;28;20051;-78
2022/05/27 06:51:44;;;;;;;11.15;2.47;;;;;;;;;;4978766;28;20043;-77
2022/05/27 06:54:11;;;;;;;9.90;1.92;;;;;;;;;;4990184;28;20105;-78
2022/05/27 06:56:38;;;;;;;12.48;2.22;;;;;;;;;;4973441;28;20054;-78
2022/05/27 06:59:04;;;;;;;9.60;2.38;;;;;;;;;;4988505;28;20097;-77
2022/05/27 07:01:30;;;;;;;9.32;2.35;;;;;;;;;;4990124;28;20122;-84
2022/05/27 07:03:57;;;;;;;11.20;2.22;;;;;;;;;;4988975;28;20051;-84
2022/05/27 07:06:24;;;;;;;7.25;2.28;;;;;;;;;;5004434;28;20051;-84
2022/05/27 07:08:50;;;;;;;9.43;2.00;;;;;;;;;;4972104;28;20038;-86
2022/05/27 07:11:16;;;;;;;8.60;2.00;;;;;;;;;;4989682;28;20050;-85
2022/05/27 07:13:43;;;;;;;8.88;1.80;;;;;;;;;;5005464;28;20485;-84
2022/05/27 07:16:09;;;;;;;8.68;1.90;;;;;;;;;;4972978;28;20047;-82
2022/05/27 07:18:35;;;;;;;8.95;1.90;;;;;;;;;;4973048;28;20038;-82
2022/05/27 07:21:02;;;;;;;7.10;1.92;;;;;;;;;;4973930;28;20057;-77
2022/05/27 07:23:28;;;;;;;11.02;2.22;;;;;;;;;;4973334;28;20050;-78
2022/05/27 07:25:54;;;;;;;7.82;1.88;;;;;;;;;;4971216;28;20141;-78
2022/05/27 07:28:20;;;;;;;9.48;2.15;;;;;;;;;;5003227;28;20450;-79
2022/05/27 07:30:47;;;;;;;8.73;2.28;;;;;;;;;;4986985;28;20058;-79
2022/05/27 07:33:13;;;;;;;11.90;2.20;;;;;;;;;;5001425;28;20038;-78
2022/05/27 07:35:39;;;;;;;10.93;2.20;;;;;;;;;;5004554;28;20046;-77
2022/05/27 07:38:05;;;;;;;11.15;2.58;;;;;;;;;;4986736;28;20047;-78
2022/05/27 07:40:31;;;;;;;10.82;2.33;;;;;;;;;;4971141;28;20864;-76
2022/05/27 07:42:57;;;;;;;11.80;2.75;;;;;;;;;;5004810;28;20565;-78
2022/05/27 07:45:27;;;;;;;10.75;1.95;;;;;;;;;;4973210;28;20535;-83
2022/05/27 07:47:56;;;;;;;8.18;1.88;;;;;;;;;;4986996;28;20046;-80
2022/05/27 07:50:23;;;;;;;7.82;1.80;;;;;;;;;;4969977;28;20047;-80
2022/05/27 07:52:50;;;;;;;8.57;2.00;;;;;;;;;;4987426;28;20067;-79
2022/05/27 07:55:16;;;;;;;7.25;2.00;;;;;;;;;;4970605;28;20070;-79
2022/05/27 07:57:46;;;;;;;9.43;1.90;;;;;;;;;;5001360;28;20082;-85
2022/05/27 08:00:15;;;;;;;6.88;1.70;;;;;;;;;;4985851;28;20057;-79
2022/05/27 08:02:41;;;;;;;10.82;2.00;;;;;;;;;;5003117;28;20097;-78
2022/05/27 08:05:12;;;;;;;7.82;1.58;;;;;;;;;;5004078;28;20065;-80
2022/05/27 08:07:38;;;;;;;12.20;2.10;;;;;;;;;;4972068;28;20051;-80
2022/05/27 08:10:06;;;;;;;9.55;2.10;;;;;;;;;;5002838;28;20410;-76
2022/05/27 08:12:32;;;;;;;8.18;1.98;;;;;;;;;;4970371;28;20051;-79
2022/05/27 08:14:58;;;;;;;8.77;1.95;;;;;;;;;;4989037;28;20332;-80
2022/05/27 08:17:24;;;;;;;9.63;1.92;;;;;;;;;;4973433;28;20114;-79
2022/05/27 08:19:52;;;;;;;8.70;1.80;;;;;;;;;;4969345;28;20038;-76
2022/05/27 08:22:18;;;;;;;7.47;1.73;;;;;;;;;;4991552;28;20042;-80
2022/05/27 08:24:44;;;;;;;9.82;2.25;;;;;;;;;;4974716;28;20445;-75
2022/05/27 08:27:11;;;;;;;8.27;2.03;;;;;;;;;;4986190;28;20046;-80
2022/05/27 08:29:37;;;;;;;8.23;1.77;;;;;;;;;;4985684;28;20144;-76
2022/05/27 08:32:04;;;;;;;10.95;1.92;;;;;;;;;;4989714;28;20629;-76
2022/05/27 08:40:09;;;;;;;7.68;1.65;;;;;;;;;;5002038;28;20510;-76
2022/05/27 08:42:41;;;;;;;9.35;1.73;;;;;;;;;;5002203;28;20039;-74
2022/05/27 08:45:12;;;;;;;10.65;1.90;;;;;;;;;;4985581;28;20065;-76
2022/05/27 08:47:41;;;;;;;7.65;1.70;;;;;;;;;;5004570;28;20133;-77
2022/05/27 08:50:20;;;;;;;7.35;1.80;;;;;;;;;;4970270;28;20081;-77
2022/05/27 08:52:47;;;;;;;9.05;1.83;;;;;;;;;;4979601;28;20446;-77
2022/05/27 09:01:06;;;;;;;6.25;1.50;;;;;;;;;;4986683;28;20446;-77
2022/05/27 09:03:36;;;;;;;9.20;1.98;;;;;;;;;;4969031;28;20061;-79
2022/05/27 09:06:05;;;;;;;8.93;2.00;;;;;;;;;;4985840;28;20102;-80
2022/05/27 09:08:31;;;;;;;6.97;1.67;;;;;;;;;;4985823;28;20043;-80
2022/05/27 09:10:57;;;;;;;5.82;1.75;;;;;;;;;;4989438;28;20053;-80
2022/05/27 09:13:36;;;;;;;8.25;1.67;;;;;;;;;;5001125;28;20043;-79
2022/05/27 09:16:31;;;;;;;7.93;1.90;;;;;;;;;;5001855;28;20078;-81
2022/05/27 09:19:09;;;;;;;7.25;2.30;;;;;;;;;;4954170;28;20487;-79
2022/05/27 09:21:42;;;;;;;9.93;1.98;;;;;;;;;;4986360;28;20042;-77
2022/05/27 09:24:17;;;;;;;8.23;2.13;;;;;;;;;;4971522;28;20042;-80
2022/05/27 09:26:45;;;;;;;10.25;2.50;;;;;;;;;;4986370;28;20479;-80
2022/05/27 09:29:15;;;;;;;8.73;1.73;;;;;;;;;;5007900;28;20057;-83
2022/05/27 09:31:43;;;;;;;6.03;1.88;;;;;;;;;;4986503;28;20410;-84
2022/05/27 09:34:10;;;;;;;8.43;2.30;;;;;;;;;;4989523;28;20097;-81
2022/05/27 09:36:39;;;;;;;8.20;2.13;;;;;;;;;;4990532;28;20047;-84
2022/05/27 09:39:10;;;;;;;9.23;1.90;;;;;;;;;;4976949;28;20049;-83
2022/05/27 09:41:55;;;;;;;7.93;1.92;;;;;;;;;;4980781;28;20186;-81
2022/05/27 09:44:40;;;;;;;9.70;2.45;;;;;;;;;;5006586;28;20043;-84
2022/05/27 09:47:06;;;;;;;6.82;1.70;;;;;;;;;;4990310;28;20379;-83
2022/05/27 09:49:32;;;;;;;7.68;1.83;;;;;;;;;;4991766;28;20042;-83
2022/05/27 09:51:59;;;;;;;8.43;1.67;;;;;;;;;;4979144;28;20131;-84
2022/05/27 09:54:26;;;;;;;8.45;1.63;;;;;;;;;;5006396;28;20558;-82
2022/05/27 09:56:57;;;;;;;10.57;1.70;;;;;;;;;;4991336;28;20074;-86
2022/05/27 09:59:34;;;;;;;11.93;1.73;;;;;;;;;;5006361;28;20047;-83
2022/05/27 10:02:17;;;;;;;9.57;1.77;;;;;;;;;;4973264;28;20082;-84
2022/05/27 10:04:54;;;;;;;8.15;1.63;;;;;;;;;;4989364;28;20295;-87
2022/05/27 10:07:29;;;;;;;7.95;1.73;;;;;;;;;;4982532;28;20370;-89
2022/05/27 10:09:55;;;;;;;8.25;2.00;;;;;;;;;;4979392;28;20054;-82
2022/05/27 10:12:29;;;;;;;7.57;2.13;;;;;;;;;;4984012;28;20053;-86
2022/05/27 10:14:55;;;;;;;10.00;1.80;;;;;;;;;;4975436;28;20104;-81
2022/05/27 10:17:36;;;;;;;11.73;2.20;;;;;;;;;;4975235;28;20129;-85
2022/05/27 10:20:17;;;;;;;12.07;2.03;;;;;;;;;;4973194;28;20407;-77
2022/05/27 10:22:44;;;;;;;8.75;1.92;;;;;;;;;;4988502;28;20514;-85
2022/05/27 10:25:12;;;;;;;7.63;1.70;;;;;;;;;;4972908;28;20069;-81
2022/05/27 10:27:38;;;;;;;6.63;1.50;;;;;;;;;;4989522;28;20055;-83
2022/05/27 10:30:07;;;;;;;7.85;1.70;;;;;;;;;;4974010;28;20057;-77
2022/05/27 10:32:33;;;;;;;9.40;1.65;;;;;;;;;;4988023;28;20046;-79
2022/05/27 10:35:07;;;;;;;9.07;2.20;;;;;;;;;;4989936;28;20506;-83
2022/05/27 10:37:39;;;;;;;8.77;1.95;;;;;;;;;;4976648;28;20042;-85
2022/05/27 10:40:16;;;;;;;11.00;1.92;;;;;;;;;;5001063;28;20520;-83
2022/05/27 10:42:46;;;;;;;11.18;1.80;;;;;;;;;;4989009;28;20039;-89
2022/05/27 10:45:20;;;;;;;5.78;1.98;;;;;;;;;;4972681;28;20046;-84
2022/05/27 10:48:01;;;;;;;10.60;2.03;;;;;;;;;;4978280;28;20042;-86
2022/05/27 10:50:54;;;;;;;10.98;2.00;;;;;;;;;;4989188;28;20039;-88
2022/05/27 10:53:39;;;;;;;12.77;2.33;;;;;;;;;;4948908;28;20070;-82
2022/05/27 10:56:13;;;;;;;12.85;2.33;;;;;;;;;;4989225;28;20074;-82
2022/05/27 11:02:07;;;;;;;11.30;1.90;;;;;;;;;;4990427;28;20078;-91
2022/05/27 11:04:39;;;;;;;7.28;1.60;;;;;;;;;;5005909;28;20602;-82
2022/05/27 11:07:14;;;;;;;8.27;1.40;;;;;;;;;;4972969;28;20390;-84
2022/05/27 11:09:43;;;;;;;8.68;1.73;;;;;;;;;;4973851;28;20050;-82
2022/05/27 11:12:09;;;;;;;8.10;1.90;;;;;;;;;;5004781;28;20062;-90
2022/05/27 11:17:29;;;;;;;9.30;1.83;;;;;;;;;;4989646;28;20047;-85
2022/05/27 11:20:14;;;;;;;9.27;2.15;;;;;;;;;;4972304;28;20143;-82
2022/05/27 11:22:59;;;;;;;10.18;2.13;;;;;;;;;;4987421;28;20082;-77
2022/05/27 11:25:44;;;;;;;12.18;2.33;;;;;;;;;;4970497;28;20126;-77
2022/05/27 11:28:28;;;;;;;8.75;2.03;;;;;;;;;;4986941;28;20038;-78
2022/05/27 11:30:57;;;;;;;11.70;2.33;;;;;;;;;;4987081;28;20069;-77
2022/05/27 11:33:23;;;;;;;8.95;2.30;;;;;;;;;;5002970;28;20038;-77
2022/05/27 11:36:11;;;;;;;9.15;1.83;;;;;;;;;;5003198;28;20270;-78
2022/05/27 11:38:37;;;;;;;9.60;2.25;;;;;;;;;;4987160;28;20122;-80
2022/05/27 11:41:15;;;;;;;11.77;2.10;;;;;;;;;;4986924;28;20050;-78
2022/05/27 11:43:43;;;;;;;10.07;2.03;;;;;;;;;;4986775;28;20507;-79
2022/05/27 11:46:39;;;;;;;13.30;2.28;;;;;;;;;;4987072;28;20050;-77
2022/05/27 11:49:05;;;;;;;11.60;1.97;;;;;;;;;;4970457;28;20077;-77
2022/05/27 11:51:39;;;;;;;9.82;2.53;;;;;;;;;;4986450;28;20051;-75
2022/05/27 11:54:24;;;;;;;10.45;2.13;;;;;;;;;;4986308;28;20142;-80
2022/05/27 11:57:02;;;;;;;12.20;1.98;;;;;;;;;;4986818;28;20498;-78
2022/05/27 11:59:43;;;;;;;10.88;2.10;;;;;;;;;;4973300;28;20035;-74
2022/05/27 12:02:22;;;;;;;13.05;2.17;;;;;;;;;;4986626;28;20398;-76
2022/05/27 12:04:53;;;;;;;11.40;2.35;;;;;;;;;;4972045;28;20038;-75
2022/05/27 12:07:34;;;;;;;13.20;2.30;;;;;;;;;;4986180;28;20057;-78
2022/05/27 12:10:17;;;;;;;16.30;2.88;;;;;;;;;;4986175;28;20047;-78
2022/05/27 12:13:02;;;;;;;10.43;2.75;;;;;;;;;;4970342;28;20487;-75
2022/05/27 12:15:31;;;;;;;7.72;1.85;;;;;;;;;;4985742;28;20054;-78
2022/05/27 12:17:58;;;;;;;13.70;2.53;;;;;;;;;;4986206;28;20051;-77
2022/05/27 12:20:25;;;;;;;13.45;2.42;;;;;;;;;;4986196;28;20042;-77
2022/05/27 12:22:53;;;;;;;10.95;2.20;;;;;;;;;;5002444;28;20537;-79
2022/05/27 12:25:22;;;;;;;7.65;2.17;;;;;;;;;;4985747;28;20410;-78
2022/05/27 12:27:49;;;;;;;13.48;2.00;;;;;;;;;;4986298;28;20043;-76
2022/05/27 12:30:17;;;;;;;10.25;2.20;;;;;;;;;;4969633;28;20038;-78
2022/05/27 12:32:44;;;;;;;11.43;2.10;;;;;;;;;;4969725;28;20486;-78
2022/05/27 12:35:22;;;;;;;11.45;2.20;;;;;;;;;;5002532;28;20525;-79
2022/05/27 12:37:50;;;;;;;13.60;2.05;;;;;;;;;;5002577;28;20125;-77
2022/05/27 12:40:19;;;;;;;11.65;2.70;;;;;;;;;;4985737;28;20080;-79
2022/05/27 12:42:45;;;;;;;14.10;2.47;;;;;;;;;;4985759;28;20062;-77
2022/05/27 12:45:17;;;;;;;12.82;2.65;;;;;;;;;;4985535;28;20086;-79
2022/05/27 12:47:44;;;;;;;12.35;2.30;;;;;;;;;;4985979;28;20090;-81
2022/05/27 12:50:15;;;;;;;9.85;1.85;;;;;;;;;;4985517;28;20038;-77
2022/05/27 12:52:53;;;;;;;12.13;2.10;;;;;;;;;;4972837;28;20050;-76
2022/05/27 13:01:40;;;;;;;10.32;2.00;;;;;;;;;;5002183;28;20249;-79
2022/05/27 13:04:06;;;;;;;9.20;2.03;;;;;;;;;;4985593;28;20047;-76
2022/05/27 13:06:32;;;;;;;12.48;1.80;;;;;;;;;;5001687;28;20491;-79
2022/05/27 13:09:07;;;;;;;13.18;2.65;;;;;;;;;;4985669;28;20047;-74
2022/05/27 13:11:39;;;;;;;11.80;2.28;;;;;;;;;;4984908;28;20049;-78
2022/05/27 13:14:06;;;;;;;15.02;1.92;;;;;;;;;;4985156;28;20054;-79
2022/05/27 13:16:38;;;;;;;12.93;2.50;;;;;;;;;;5001449;28;20042;-76
2022/05/27 13:19:05;;;;;;;10.73;1.92;;;;;;;;;;4985285;28;20077;-76
2022/05/27 13:21:41;;;;;;;15.10;2.05;;;;;;;;;;4984682;28;20053;-77
2022/05/27 13:24:10;;;;;;;11.75;2.08;;;;;;;;;;4985135;28;20054;-77
2022/05/27 13:26:46;;;;;;;11.18;2.33;;;;;;;;;;5001238;28;20054;-77
2022/05/27 13:29:33;;;;;;;9.65;2.00;;;;;;;;;;4985373;28;20429;-76
2022/05/27 13:32:00;;;;;;;9.07;1.90;;;;;;;;;;4984805;28;20043;-75
2022/05/27 13:34:32;;;;;;;10.90;2.42;;;;;;;;;;4984957;28;20514;-77
2022/05/27 13:37:00;;;;;;;12.75;2.25;;;;;;;;;;5001225;28;20162;-79
2022/05/27 13:39:32;;;;;;;9.75;1.77;;;;;;;;;;4985073;28;20057;-75
2022/05/27 13:41:58;;;;;;;9.43;1.95;;;;;;;;;;5001628;28;20101;-78
2022/05/27 13:44:25;;;;;;;9.40;1.70;;;;;;;;;;4984947;28;20053;-80
2022/05/27 13:46:53;;;;;;;11.02;2.30;;;;;;;;;;5001156;28;20050;-76
2022/05/27 13:49:30;;;;;;;13.30;2.45;;;;;;;;;;4985379;28;20049;-75
2022/05/27 13:51:56;;;;;;;7.25;1.65;;;;;;;;;;4985208;28;20070;-77
2022/05/27 13:54:29;;;;;;;12.77;2.17;;;;;;;;;;4985019;28;20042;-77
2022/05/27 13:56:57;;;;;;;11.38;1.90;;;;;;;;;;4984918;28;20039;-77
2022/05/27 13:59:31;;;;;;;12.40;2.70;;;;;;;;;;4984813;28;20118;-78
2022/05/27 14:01:59;;;;;;;14.95;2.50;;;;;;;;;;4969810;28;20050;-77
2022/05/27 14:04:28;;;;;;;13.43;2.28;;;;;;;;;;4968302;28;20085;-79
2022/05/27 14:06:55;;;;;;;15.55;3.35;;;;;;;;;;5001725;28;20522;-78
2022/05/27 14:09:23;;;;;;;15.55;2.28;;;;;;;;;;4984721;28;20543;-79
2022/05/27 14:11:51;;;;;;;10.73;1.90;;;;;;;;;;4968756;28;20050;-77
2022/05/27 14:14:22;;;;;;;17.15;2.10;;;;;;;;;;4984323;28;20063;-79
2022/05/27 14:16:48;;;;;;;11.00;2.20;;;;;;;;;;5000981;28;20098;-78
2022/05/27 14:19:19;;;;;;;11.73;2.22;;;;;;;;;;4987682;28;20065;-79
2022/05/27 14:24:32;;;;;;;11.90;2.23;;;;;;;;;;5004578;28;20047;-76
2022/05/27 14:26:58;;;;;;;11.48;1.88;;;;;;;;;;4988383;28;20043;-75
2022/05/27 14:29:25;;;;;;;13.10;2.20;;;;;;;;;;4971957;28;20082;-79
2022/05/27 14:32:00;;;;;;;9.68;2.00;;;;;;;;;;4971590;28;20035;-77
2022/05/27 14:34:28;;;;;;;11.27;2.20;;;;;;;;;;4988293;28;20390;-76
2022/05/27 14:37:24;;;;;;;11.10;2.00;;;;;;;;;;4988345;28;20450;-81
2022/05/27 14:39:51;;;;;;;13.55;2.40;;;;;;;;;;4973285;28;20494;-88
2022/05/27 14:42:18;;;;;;;16.35;2.58;;;;;;;;;;4973973;28;20510;-82
2022/05/27 14:44:45;;;;;;;10.38;2.10;;;;;;;;;;4990056;28;20042;-79
2022/05/27 14:47:14;;;;;;;12.05;2.20;;;;;;;;;;4973396;28;20050;-83
2022/05/27 14:49:41;;;;;;;13.23;2.22;;;;;;;;;;4973485;28;20053;-88
2022/05/27 14:52:26;;;;;;;10.10;1.98;;;;;;;;;;4989598;28;20035;-90
2022/05/27 14:54:55;;;;;;;12.68;2.15;;;;;;;;;;5006321;28;20450;-80
2022/05/27 14:57:25;;;;;;;9.98;1.63;;;;;;;;;;4989735;28;20093;-85
2022/05/27 14:59:54;;;;;;;10.10;2.13;;;;;;;;;;4989681;28;20045;-82
2022/05/27 15:02:21;;;;;;;11.20;2.42;;;;;;;;;;4973185;28;20047;-86
2022/05/27 15:04:55;;;;;;;13.38;2.05;;;;;;;;;;4989902;28;20430;-84
2022/05/27 15:07:22;;;;;;;9.73;1.88;;;;;;;;;;4988865;28;20093;-89
2022/05/27 15:10:02;;;;;;;13.43;1.98;;;;;;;;;;4989650;28;20093;-81
2022/05/27 15:12:30;;;;;;;11.98;1.88;;;;;;;;;;4988996;28;20051;-89
2022/05/27 15:14:57;;;;;;;13.75;2.03;;;;;;;;;;4988933;28;20113;-84
2022/05/27 15:17:25;;;;;;;9.90;1.98;;;;;;;;;;4989820;28;20039;-88
2022/05/27 15:20:05;;;;;;;10.02;2.35;;;;;;;;;;5005933;28;20442;-83
2022/05/27 15:22:41;;;;;;;9.18;1.80;;;;;;;;;;4988977;28;20050;-84
2022/05/27 15:25:08;;;;;;;16.60;2.20;;;;;;;;;;4988111;28;20050;-84
2022/05/27 15:33:13;;;;;;;9.45;1.63;;;;;;;;;;5004985;28;20074;-82